sensor_id;sensor_type;location;lat;lon;timestamp;pressure;altitude;pressure_sealevel;temperature;humidity
13661;BME280;6903;49.480;11.102;2023-04-27T00:00:36;98042.22;;;4.66;100.00
13661;BME280;6903;49.480;11.102;2023-04-27T00:03:02;98031.66;;;4.67;100.00
13661;BME280;6903;49.480;11.102;2023-04-27T00:05:33;98039.44;;;4.69;100.00
13661;BME280;6903;49.480;11.102;2023-04-27T00:07:59;98036.66;;;4.72;100.00
13661;BME280;6903;49.480;11.102;2023-04-27T00:10:24;98033.88;;;4.75;100.00
13661;BME280;6903;49.480;11.102;2023-04-27T00:12:49;98036.31;;;4.78;100.00
13661;BME280;6903;49.480;11.102;2023-04-27T00:15:15;98027.47;;;4.80;100.00
13661;BME280;6903;49.480;11.102;2023-04-27T00:17:40;98023.09;;;4.81;100.00
13661;BME280;6903;49.480;11.102;2023-04-27T00:20:07;98023.00;;;4.82;100.00
13661;BME280;6903;49.480;11.102;2023-04-27T00:22:36;98025.44;;;4.85;100.00
13661;BME280;6903;49.480;11.102;2023-04-27T00:25:01;98022.84;;;4.85;100.00
13661;BME280;6903;49.480;11.102;2023-04-27T00:27:27;98020.31;;;4.84;100.00
13661;BME280;6903;49.480;11.102;2023-04-27T00:29:52;98005.41;;;4.86;100.00
13661;BME280;6903;49.480;11.102;2023-04-27T00:32:17;98007.06;;;4.87;100.00
13661;BME280;6903;49.480;11.102;2023-04-27T00:34:43;98006.97;;;4.88;100.00
13661;BME280;6903;49.480;11.102;2023-04-27T00:37:08;98008.91;;;5.00;100.00
13661;BME280;6903;49.480;11.102;2023-04-27T00:39:34;98003.97;;;4.96;100.00
13661;BME280;6903;49.480;11.102;2023-04-27T00:42:00;98008.41;;;4.94;100.00
13661;BME280;6903;49.480;11.102;2023-04-27T00:44:26;98003.47;;;4.89;100.00
13661;BME280;6903;49.480;11.102;2023-04-27T00:46:52;98009.50;;;4.90;100.00
13661;BME280;6903;49.480;11.102;2023-04-27T00:49:21;98004.13;;;4.93;100.00
13661;BME280;6903;49.480;11.102;2023-04-27T00:51:47;98007.66;;;4.92;100.00
13661;BME280;6903;49.480;11.102;2023-04-27T00:54:14;97998.81;;;4.94;100.00
13661;BME280;6903;49.480;11.102;2023-04-27T00:56:40;98002.25;;;4.95;100.00
13661;BME280;6903;49.480;11.102;2023-04-27T00:59:05;98010.94;;;4.95;100.00
13661;BME280;6903;49.480;11.102;2023-04-27T01:01:31;98001.44;;;4.94;100.00
13661;BME280;6903;49.480;11.102;2023-04-27T01:03:56;98004.88;;;4.95;100.00
13661;BME280;6903;49.480;11.102;2023-04-27T01:06:21;98000.59;;;4.94;100.00
13661;BME280;6903;49.480;11.102;2023-04-27T01:08:47;97999.72;;;4.93;100.00
13661;BME280;6903;49.480;11.102;2023-04-27T01:11:12;98005.22;;;4.89;100.00
13661;BME280;6903;49.480;11.102;2023-04-27T01:13:37;98024.63;;;4.85;100.00
13661;BME280;6903;49.480;11.102;2023-04-27T01:16:03;98009.09;;;4.82;100.00
13661;BME280;6903;49.480;11.102;2023-04-27T01:18:28;98012.81;;;4.78;100.00
13661;BME280;6903;49.480;11.102;2023-04-27T01:20:54;98001.69;;;4.74;100.00
13661;BME280;6903;49.480;11.102;2023-04-27T01:23:20;98010.47;;;4.73;100.00
13661;BME280;6903;49.480;11.102;2023-04-27T01:25:45;98015.88;;;4.70;100.00
13661;BME280;6903;49.480;11.102;2023-04-27T01:28:10;98012.41;;;4.70;100.00
13661;BME280;6903;49.480;11.102;2023-04-27T01:30:36;98009.88;;;4.68;100.00
13661;BME280;6903;49.480;11.102;2023-04-27T01:33:01;98009.09;;;4.66;100.00
13661;BME280;6903;49.480;11.102;2023-04-27T01:35:26;98011.81;;;4.65;100.00
13661;BME280;6903;49.480;11.102;2023-04-27T01:37:51;98013.56;;;4.64;100.00
13661;BME280;6903;49.480;11.102;2023-04-27T01:40:17;98010.31;;;4.61;100.00
13661;BME280;6903;49.480;11.102;2023-04-27T01:42:42;98014.69;;;4.60;100.00
13661;BME280;6903;49.480;11.102;2023-04-27T01:45:08;98013.81;;;4.60;100.00
13661;BME280;6903;49.480;11.102;2023-04-27T01:47:34;98011.97;;;4.62;100.00
13661;BME280;6903;49.480;11.102;2023-04-27T01:49:59;98011.28;;;4.58;100.00
13661;BME280;6903;49.480;11.102;2023-04-27T01:52:24;98010.34;;;4.59;100.00
13661;BME280;6903;49.480;11.102;2023-04-27T01:54:50;98007.75;;;4.59;100.00
13661;BME280;6903;49.480;11.102;2023-04-27T01:57:15;98014.94;;;4.56;100.00
13661;BME280;6903;49.480;11.102;2023-04-27T01:59:41;98012.50;;;4.53;100.00
13661;BME280;6903;49.480;11.102;2023-04-27T02:02:06;98010.78;;;4.52;100.00
13661;BME280;6903;49.480;11.102;2023-04-27T02:04:32;98014.25;;;4.52;100.00
13661;BME280;6903;49.480;11.102;2023-04-27T02:06:57;98014.34;;;4.51;100.00
13661;BME280;6903;49.480;11.102;2023-04-27T02:09:23;98015.16;;;4.51;100.00
13661;BME280;6903;49.480;11.102;2023-04-27T02:11:48;98013.56;;;4.49;100.00
13661;BME280;6903;49.480;11.102;2023-04-27T02:14:13;98013.47;;;4.50;100.00
13661;BME280;6903;49.480;11.102;2023-04-27T02:16:39;98010.03;;;4.50;100.00
13661;BME280;6903;49.480;11.102;2023-04-27T02:19:04;98009.13;;;4.51;100.00
13661;BME280;6903;49.480;11.102;2023-04-27T02:21:29;98013.41;;;4.52;100.00
13661;BME280;6903;49.480;11.102;2023-04-27T02:23:55;98012.53;;;4.51;100.00
13661;BME280;6903;49.480;11.102;2023-04-27T02:26:21;98016.19;;;4.49;100.00
13661;BME280;6903;49.480;11.102;2023-04-27T02:28:47;98013.66;;;4.47;100.00
13661;BME280;6903;49.480;11.102;2023-04-27T02:31:13;98012.88;;;4.45;100.00
13661;BME280;6903;49.480;11.102;2023-04-27T02:33:39;98017.44;;;4.42;100.00
13661;BME280;6903;49.480;11.102;2023-04-27T02:36:04;98023.66;;;4.39;100.00
13661;BME280;6903;49.480;11.102;2023-04-27T02:38:30;98025.44;;;4.38;100.00
13661;BME280;6903;49.480;11.102;2023-04-27T02:40:55;98022.91;;;4.37;100.00
13661;BME280;6903;49.480;11.102;2023-04-27T02:43:21;98023.91;;;4.34;100.00
13661;BME280;6903;49.480;11.102;2023-04-27T02:45:46;98018.69;;;4.34;100.00
13661;BME280;6903;49.480;11.102;2023-04-27T02:48:12;98025.75;;;4.32;100.00
13661;BME280;6903;49.480;11.102;2023-04-27T02:50:41;98022.22;;;4.33;100.00
13661;BME280;6903;49.480;11.102;2023-04-27T02:53:07;98024.91;;;4.32;100.00
13661;BME280;6903;49.480;11.102;2023-04-27T02:55:32;98019.78;;;4.30;100.00
13661;BME280;6903;49.480;11.102;2023-04-27T02:57:58;98027.53;;;4.32;100.00
13661;BME280;6903;49.480;11.102;2023-04-27T03:00:23;98027.44;;;4.33;100.00
13661;BME280;6903;49.480;11.102;2023-04-27T03:02:48;98030.03;;;4.33;100.00
13661;BME280;6903;49.480;11.102;2023-04-27T03:05:14;98030.03;;;4.33;100.00
13661;BME280;6903;49.480;11.102;2023-04-27T03:07:39;98028.38;;;4.32;100.00
13661;BME280;6903;49.480;11.102;2023-04-27T03:10:05;98034.53;;;4.31;100.00
13661;BME280;6903;49.480;11.102;2023-04-27T03:12:31;98029.41;;;4.30;100.00
13661;BME280;6903;49.480;11.102;2023-04-27T03:14:56;98030.28;;;4.29;100.00
13661;BME280;6903;49.480;11.102;2023-04-27T03:17:21;98024.31;;;4.27;100.00
13661;BME280;6903;49.480;11.102;2023-04-27T03:19:47;98024.31;;;4.27;100.00
13661;BME280;6903;49.480;11.102;2023-04-27T03:22:13;98029.63;;;4.25;100.00
13661;BME280;6903;49.480;11.102;2023-04-27T03:24:38;98026.25;;;4.23;100.00
13661;BME280;6903;49.480;11.102;2023-04-27T03:27:04;98041.59;;;4.29;100.00
13661;BME280;6903;49.480;11.102;2023-04-27T03:29:29;98037.28;;;4.28;100.00
13661;BME280;6903;49.480;11.102;2023-04-27T03:31:54;98040.66;;;4.30;100.00
13661;BME280;6903;49.480;11.102;2023-04-27T03:34:19;98040.56;;;4.32;100.00
13661;BME280;6903;49.480;11.102;2023-04-27T03:36:45;98040.56;;;4.32;100.00
13661;BME280;6903;49.480;11.102;2023-04-27T03:39:11;98037.97;;;4.32;100.00
13661;BME280;6903;49.480;11.102;2023-04-27T03:41:36;98036.38;;;4.29;100.00
13661;BME280;6903;49.480;11.102;2023-04-27T03:44:02;98044.28;;;4.28;100.00
13661;BME280;6903;49.480;11.102;2023-04-27T03:46:27;98047.72;;;4.28;100.00
13661;BME280;6903;49.480;11.102;2023-04-27T03:48:52;98050.31;;;4.28;100.00
13661;BME280;6903;49.480;11.102;2023-04-27T03:51:18;98058.03;;;4.31;100.00
13661;BME280;6903;49.480;11.102;2023-04-27T03:53:43;98051.00;;;4.32;100.00
13661;BME280;6903;49.480;11.102;2023-04-27T03:56:08;98065.75;;;4.33;100.00
13661;BME280;6903;49.480;11.102;2023-04-27T03:58:34;98062.13;;;4.35;100.00
13661;BME280;6903;49.480;11.102;2023-04-27T04:00:59;98060.28;;;4.38;100.00
13661;BME280;6903;49.480;11.102;2023-04-27T04:03:25;98065.34;;;4.41;100.00
13661;BME280;6903;49.480;11.102;2023-04-27T04:05:50;98063.59;;;4.41;100.00
13661;BME280;6903;49.480;11.102;2023-04-27T04:08:15;98068.81;;;4.41;100.00
13661;BME280;6903;49.480;11.102;2023-04-27T04:10:41;98071.41;;;4.41;100.00
13661;BME280;6903;49.480;11.102;2023-04-27T04:13:06;98068.66;;;4.44;100.00
13661;BME280;6903;49.480;11.102;2023-04-27T04:15:31;98068.47;;;4.47;100.00
13661;BME280;6903;49.480;11.102;2023-04-27T04:17:57;98067.53;;;4.48;100.00
13661;BME280;6903;49.480;11.102;2023-04-27T04:20:22;98063.84;;;4.52;100.00
13661;BME280;6903;49.480;11.102;2023-04-27T04:22:47;98054.91;;;4.56;100.00
13661;BME280;6903;49.480;11.102;2023-04-27T04:25:13;98056.44;;;4.60;100.00
13661;BME280;6903;49.480;11.102;2023-04-27T04:27:39;98047.44;;;4.66;100.00
13661;BME280;6903;49.480;11.102;2023-04-27T04:30:05;98044.69;;;4.69;100.00
13661;BME280;6903;49.480;11.102;2023-04-27T04:32:31;98039.28;;;4.72;100.00
13661;BME280;6903;49.480;11.102;2023-04-27T04:34:58;98052.94;;;4.77;100.00
13661;BME280;6903;49.480;11.102;2023-04-27T04:37:26;98048.44;;;4.79;100.00
13661;BME280;6903;49.480;11.102;2023-04-27T04:39:51;98050.88;;;4.82;100.00
13661;BME280;6903;49.480;11.102;2023-04-27T04:42:16;98055.19;;;4.83;100.00
13661;BME280;6903;49.480;11.102;2023-04-27T04:44:41;98058.59;;;4.85;100.00
13661;BME280;6903;49.480;11.102;2023-04-27T04:47:07;98059.22;;;4.88;100.00
13661;BME280;6903;49.480;11.102;2023-04-27T04:49:34;98064.38;;;4.90;100.00
13661;BME280;6903;49.480;11.102;2023-04-27T04:51:59;98068.59;;;4.92;100.00
13661;BME280;6903;49.480;11.102;2023-04-27T04:54:24;98068.44;;;4.95;100.00
13661;BME280;6903;49.480;11.102;2023-04-27T04:56:50;98063.03;;;4.98;100.00
13661;BME280;6903;49.480;11.102;2023-04-27T04:59:15;98063.88;;;4.99;100.00
13661;BME280;6903;49.480;11.102;2023-04-27T05:01:41;98065.38;;;5.03;100.00
13661;BME280;6903;49.480;11.102;2023-04-27T05:04:06;98061.59;;;5.08;100.00
13661;BME280;6903;49.480;11.102;2023-04-27T05:06:32;98066.72;;;5.10;100.00
13661;BME280;6903;49.480;11.102;2023-04-27T05:08:57;98066.56;;;5.13;100.00
13661;BME280;6903;49.480;11.102;2023-04-27T05:11:23;98062.88;;;5.17;100.00
13661;BME280;6903;49.480;11.102;2023-04-27T05:13:48;98066.88;;;5.22;100.00
13661;BME280;6903;49.480;11.102;2023-04-27T05:16:13;98068.22;;;5.29;100.00
13661;BME280;6903;49.480;11.102;2023-04-27T05:18:39;98060.22;;;5.32;100.00
13661;BME280;6903;49.480;11.102;2023-04-27T05:21:04;98068.63;;;5.37;100.00
13661;BME280;6903;49.480;11.102;2023-04-27T05:23:30;98069.81;;;5.47;100.00
13661;BME280;6903;49.480;11.102;2023-04-27T05:25:55;98071.78;;;5.58;100.00
13661;BME280;6903;49.480;11.102;2023-04-27T05:28:20;98075.75;;;5.65;100.00
13661;BME280;6903;49.480;11.102;2023-04-27T05:30:46;98089.31;;;5.71;100.00
13661;BME280;6903;49.480;11.102;2023-04-27T05:33:11;98084.66;;;5.76;100.00
13661;BME280;6903;49.480;11.102;2023-04-27T05:35:36;98088.09;;;5.77;100.00
13661;BME280;6903;49.480;11.102;2023-04-27T05:38:02;98092.19;;;5.83;100.00
13661;BME280;6903;49.480;11.102;2023-04-27T05:40:28;98090.88;;;5.90;100.00
13661;BME280;6903;49.480;11.102;2023-04-27T05:42:53;98097.34;;;5.98;100.00
13661;BME280;6903;49.480;11.102;2023-04-27T05:45:19;98088.78;;;6.10;100.00
13661;BME280;6903;49.480;11.102;2023-04-27T05:47:45;98092.09;;;6.28;100.00
13661;BME280;6903;49.480;11.102;2023-04-27T05:50:10;98103.59;;;6.39;100.00
13661;BME280;6903;49.480;11.102;2023-04-27T05:52:36;98097.03;;;6.46;100.00
13661;BME280;6903;49.480;11.102;2023-04-27T05:55:01;98106.03;;;6.56;100.00
13661;BME280;6903;49.480;11.102;2023-04-27T05:57:27;98103.97;;;6.61;100.00
13661;BME280;6903;49.480;11.102;2023-04-27T05:59:52;98107.91;;;6.68;100.00
13661;BME280;6903;49.480;11.102;2023-04-27T06:02:19;98106.19;;;6.81;100.00
13661;BME280;6903;49.480;11.102;2023-04-27T06:04:44;98112.09;;;6.85;100.00
13661;BME280;6903;49.480;11.102;2023-04-27T06:07:11;98110.69;;;6.93;100.00
13661;BME280;6903;49.480;11.102;2023-04-27T06:09:37;98115.34;;;7.02;100.00
13661;BME280;6903;49.480;11.102;2023-04-27T06:12:04;98114.38;;;7.17;100.00
13661;BME280;6903;49.480;11.102;2023-04-27T06:14:30;98110.06;;;7.31;100.00
13661;BME280;6903;49.480;11.102;2023-04-27T06:16:56;98111.88;;;7.43;100.00
13661;BME280;6903;49.480;11.102;2023-04-27T06:19:21;98114.78;;;7.52;100.00
13661;BME280;6903;49.480;11.102;2023-04-27T06:21:47;98112.63;;;7.71;100.00
13661;BME280;6903;49.480;11.102;2023-04-27T06:24:12;98113.31;;;8.00;100.00
13661;BME280;6903;49.480;11.102;2023-04-27T06:26:38;98111.78;;;8.22;100.00
13661;BME280;6903;49.480;11.102;2023-04-27T06:29:03;98119.59;;;8.49;100.00
13661;BME280;6903;49.480;11.102;2023-04-27T06:31:29;98113.38;;;8.88;100.00
13661;BME280;6903;49.480;11.102;2023-04-27T06:33:54;98119.22;;;9.16;100.00
13661;BME280;6903;49.480;11.102;2023-04-27T06:36:20;98107.34;;;9.47;100.00
13661;BME280;6903;49.480;11.102;2023-04-27T06:38:45;98114.16;;;9.73;100.00
13661;BME280;6903;49.480;11.102;2023-04-27T06:41:11;98118.56;;;9.96;100.00
13661;BME280;6903;49.480;11.102;2023-04-27T06:43:36;98118.84;;;10.28;100.00
13661;BME280;6903;49.480;11.102;2023-04-27T06:46:02;98119.25;;;10.45;100.00
13661;BME280;6903;49.480;11.102;2023-04-27T06:48:27;98120.53;;;10.29;100.00
13661;BME280;6903;49.480;11.102;2023-04-27T06:50:52;98124.97;;;10.39;100.00
13661;BME280;6903;49.480;11.102;2023-04-27T06:53:18;98119.25;;;10.45;100.00
13661;BME280;6903;49.480;11.102;2023-04-27T06:55:43;98127.31;;;10.66;100.00
13661;BME280;6903;49.480;11.102;2023-04-27T06:58:08;98119.63;;;10.63;96.43
13661;BME280;6903;49.480;11.102;2023-04-27T07:00:33;98117.44;;;10.46;96.72
13661;BME280;6903;49.480;11.102;2023-04-27T07:02:59;98121.28;;;10.53;96.05
13661;BME280;6903;49.480;11.102;2023-04-27T07:05:24;98117.56;;;10.55;95.53
13661;BME280;6903;49.480;11.102;2023-04-27T07:07:50;98116.63;;;10.56;95.22
13661;BME280;6903;49.480;11.102;2023-04-27T07:10:15;98120.69;;;10.71;95.62
13661;BME280;6903;49.480;11.102;2023-04-27T07:12:41;98112.69;;;10.84;94.09
13661;BME280;6903;49.480;11.102;2023-04-27T07:15:07;98111.97;;;11.04;90.82
13661;BME280;6903;49.480;11.102;2023-04-27T07:17:32;98113.19;;;11.00;87.69
13661;BME280;6903;49.480;11.102;2023-04-27T07:19:59;98115.31;;;11.17;88.74
13661;BME280;6903;49.480;11.102;2023-04-27T07:22:25;98112.97;;;11.45;87.76
13661;BME280;6903;49.480;11.102;2023-04-27T07:24:50;98118.38;;;11.66;79.51
13661;BME280;6903;49.480;11.102;2023-04-27T07:27:16;98117.66;;;11.53;79.07
13661;BME280;6903;49.480;11.102;2023-04-27T07:29:41;98114.25;;;11.73;80.57
13661;BME280;6903;49.480;11.102;2023-04-27T07:32:07;98122.03;;;11.86;76.66
13661;BME280;6903;49.480;11.102;2023-04-27T07:34:33;98121.88;;;11.98;74.25
13661;BME280;6903;49.480;11.102;2023-04-27T07:36:59;98126.75;;;11.82;71.57
13661;BME280;6903;49.480;11.102;2023-04-27T07:39:25;98128.69;;;12.01;71.80
13661;BME280;6903;49.480;11.102;2023-04-27T07:41:51;98127.91;;;12.21;70.76
13661;BME280;6903;49.480;11.102;2023-04-27T07:44:17;98133.38;;;12.29;68.24
13661;BME280;6903;49.480;11.102;2023-04-27T07:46:43;98127.72;;;12.84;68.46
13661;BME280;6903;49.480;11.102;2023-04-27T07:49:08;98129.31;;;13.17;66.34
13661;BME280;6903;49.480;11.102;2023-04-27T07:51:34;98125.13;;;13.63;64.03
13661;BME280;6903;49.480;11.102;2023-04-27T07:54:00;98135.09;;;13.99;62.01
13661;BME280;6903;49.480;11.102;2023-04-27T07:56:26;98141.28;;;14.38;60.16
13661;BME280;6903;49.480;11.102;2023-04-27T07:58:51;98146.88;;;15.00;58.18
13661;BME280;6903;49.480;11.102;2023-04-27T08:01:17;98141.00;;;15.33;56.07
13661;BME280;6903;49.480;11.102;2023-04-27T08:03:42;98137.91;;;15.47;52.04
13661;BME280;6903;49.480;11.102;2023-04-27T08:06:07;98137.91;;;15.47;51.53
13661;BME280;6903;49.480;11.102;2023-04-27T08:08:33;98150.22;;;15.02;50.79
13661;BME280;6903;49.480;11.102;2023-04-27T08:10:58;98143.38;;;15.36;50.69
13661;BME280;6903;49.480;11.102;2023-04-27T08:13:23;98140.72;;;15.36;51.38
13661;BME280;6903;49.480;11.102;2023-04-27T08:15:49;98147.06;;;15.26;51.36
13661;BME280;6903;49.480;11.102;2023-04-27T08:18:15;98149.28;;;15.67;51.09
13661;BME280;6903;49.480;11.102;2023-04-27T08:20:42;98140.03;;;15.89;49.23
13661;BME280;6903;49.480;11.102;2023-04-27T08:23:07;98145.66;;;16.38;50.82
13661;BME280;6903;49.480;11.102;2023-04-27T08:25:34;98144.44;;;16.68;47.35
13661;BME280;6903;49.480;11.102;2023-04-27T08:28:00;98140.69;;;17.30;48.85
13661;BME280;6903;49.480;11.102;2023-04-27T08:30:26;98139.81;;;18.04;48.36
13661;BME280;6903;49.480;11.102;2023-04-27T08:32:51;98136.06;;;18.39;45.02
13661;BME280;6903;49.480;11.102;2023-04-27T08:35:18;98135.53;;;18.76;45.54
13661;BME280;6903;49.480;11.102;2023-04-27T08:37:44;98139.88;;;18.85;43.23
13661;BME280;6903;49.480;11.102;2023-04-27T08:40:09;98131.41;;;18.57;42.01
13661;BME280;6903;49.480;11.102;2023-04-27T08:42:35;98127.53;;;18.52;41.09
13661;BME280;6903;49.480;11.102;2023-04-27T08:45:00;98131.38;;;18.73;42.45
13661;BME280;6903;49.480;11.102;2023-04-27T08:47:26;98125.38;;;18.79;39.70
13661;BME280;6903;49.480;11.102;2023-04-27T08:49:52;98129.19;;;18.77;39.24
13661;BME280;6903;49.480;11.102;2023-04-27T08:52:17;98125.88;;;18.67;38.98
13661;BME280;6903;49.480;11.102;2023-04-27T08:54:42;98123.22;;;18.67;38.47
13661;BME280;6903;49.480;11.102;2023-04-27T08:57:09;98121.88;;;18.47;38.35
13661;BME280;6903;49.480;11.102;2023-04-27T08:59:34;98117.66;;;18.20;38.72
13661;BME280;6903;49.480;11.102;2023-04-27T09:02:00;98122.66;;;18.95;40.11
13661;BME280;6903;49.480;11.102;2023-04-27T09:04:35;98114.75;;;19.73;38.50
13661;BME280;6903;49.480;11.102;2023-04-27T09:07:09;98117.25;;;19.74;36.72
13661;BME280;6903;49.480;11.102;2023-04-27T09:09:34;98113.63;;;19.90;37.68
13661;BME280;6903;49.480;11.102;2023-04-27T09:12:00;98119.47;;;20.46;38.48
13661;BME280;6903;49.480;11.102;2023-04-27T09:14:26;98121.09;;;21.07;38.06
13661;BME280;6903;49.480;11.102;2023-04-27T09:16:55;98108.63;;;21.72;36.86
13661;BME280;6903;49.480;11.102;2023-04-27T09:19:26;98118.53;;;22.43;35.58
13661;BME280;6903;49.480;11.102;2023-04-27T09:22:09;98120.44;;;22.70;34.11
13661;BME280;6903;49.480;11.102;2023-04-27T09:24:35;98117.34;;;22.94;33.13
13661;BME280;6903;49.480;11.102;2023-04-27T09:27:01;98116.19;;;23.03;31.88
13661;BME280;6903;49.480;11.102;2023-04-27T09:29:35;98103.16;;;23.07;32.19
13661;BME280;6903;49.480;11.102;2023-04-27T09:32:01;98099.69;;;23.13;30.40
13661;BME280;6903;49.480;11.102;2023-04-27T09:34:36;98092.13;;;22.95;30.35
13661;BME280;6903;49.480;11.102;2023-04-27T09:37:02;98084.66;;;22.97;30.49
13661;BME280;6903;49.480;11.102;2023-04-27T09:39:27;98082.78;;;23.25;31.25
13661;BME280;6903;49.480;11.102;2023-04-27T09:41:53;98089.63;;;23.62;30.36
13661;BME280;6903;49.480;11.102;2023-04-27T09:44:18;98080.91;;;24.01;29.52
13661;BME280;6903;49.480;11.102;2023-04-27T09:46:45;98084.25;;;24.16;29.15
13661;BME280;6903;49.480;11.102;2023-04-27T09:49:13;98084.06;;;24.17;28.17
13661;BME280;6903;49.480;11.102;2023-04-27T09:51:40;98080.50;;;24.10;28.71
13661;BME280;6903;49.480;11.102;2023-04-27T09:54:06;98084.03;;;24.04;28.46
13661;BME280;6903;49.480;11.102;2023-04-27T09:59:19;98072.91;;;23.73;27.89
13661;BME280;6903;49.480;11.102;2023-04-27T10:01:54;98077.06;;;23.75;29.04
13661;BME280;6903;49.480;11.102;2023-04-27T10:04:35;98066.66;;;23.59;29.06
13661;BME280;6903;49.480;11.102;2023-04-27T10:07:06;98074.50;;;24.21;30.38
13661;BME280;6903;49.480;11.102;2023-04-27T10:09:48;98068.34;;;24.99;28.80
13661;BME280;6903;49.480;11.102;2023-04-27T10:12:18;98065.59;;;25.25;27.38
13661;BME280;6903;49.480;11.102;2023-04-27T10:14:54;98079.50;;;25.48;27.56
13661;BME280;6903;49.480;11.102;2023-04-27T10:19:54;98069.28;;;25.57;24.76
13661;BME280;6903;49.480;11.102;2023-04-27T10:22:20;98071.63;;;25.27;25.78
13661;BME280;6903;49.480;11.102;2023-04-27T10:24:48;98065.19;;;25.35;25.06
13661;BME280;6903;49.480;11.102;2023-04-27T10:27:16;98068.34;;;24.27;25.17
13661;BME280;6903;49.480;11.102;2023-04-27T10:29:47;98055.38;;;23.09;27.46
13661;BME280;6903;49.480;11.102;2023-04-27T10:32:23;98064.63;;;23.00;28.38
13661;BME280;6903;49.480;11.102;2023-04-27T10:34:50;98062.69;;;23.55;28.49
13661;BME280;6903;49.480;11.102;2023-04-27T10:37:17;98074.13;;;24.31;28.64
13661;BME280;6903;49.480;11.102;2023-04-27T10:39:44;98062.31;;;25.10;28.31
13661;BME280;6903;49.480;11.102;2023-04-27T10:42:10;98050.56;;;25.62;27.40
13661;BME280;6903;49.480;11.102;2023-04-27T10:44:36;98050.53;;;25.68;26.49
13661;BME280;6903;49.480;11.102;2023-04-27T10:47:14;98043.13;;;25.51;27.62
13661;BME280;6903;49.480;11.102;2023-04-27T10:49:39;98049.16;;;25.46;27.01
13661;BME280;6903;49.480;11.102;2023-04-27T10:52:05;98054.19;;;25.36;27.89
13661;BME280;6903;49.480;11.102;2023-04-27T10:54:31;98050.41;;;25.44;27.08
13661;BME280;6903;49.480;11.102;2023-04-27T10:57:07;98060.06;;;24.94;26.66
13661;BME280;6903;49.480;11.102;2023-04-27T10:59:33;98055.81;;;24.07;27.21
13661;BME280;6903;49.480;11.102;2023-04-27T11:02:00;98046.94;;;24.13;27.61
13661;BME280;6903;49.480;11.102;2023-04-27T11:04:38;98051.53;;;24.25;27.78
13661;BME280;6903;49.480;11.102;2023-04-27T11:07:05;98047.41;;;24.88;27.30
13661;BME280;6903;49.480;11.102;2023-04-27T11:09:33;98054.19;;;25.17;27.04
13661;BME280;6903;49.480;11.102;2023-04-27T11:11:58;98045.84;;;25.31;25.72
13661;BME280;6903;49.480;11.102;2023-04-27T11:14:24;98042.16;;;24.08;26.09
13661;BME280;6903;49.480;11.102;2023-04-27T11:16:50;98040.16;;;23.22;27.15
13661;BME280;6903;49.480;11.102;2023-04-27T11:19:15;98053.44;;;22.96;27.99
13661;BME280;6903;49.480;11.102;2023-04-27T11:21:40;98043.19;;;23.47;27.79
13661;BME280;6903;49.480;11.102;2023-04-27T11:24:07;98043.59;;;24.04;26.31
13661;BME280;6903;49.480;11.102;2023-04-27T11:26:32;98039.06;;;24.11;27.14
13661;BME280;6903;49.480;11.102;2023-04-27T11:29:02;98038.69;;;24.21;27.23
13661;BME280;6903;49.480;11.102;2023-04-27T11:31:40;98045.94;;;24.59;27.58
13661;BME280;6903;49.480;11.102;2023-04-27T11:34:07;98041.38;;;24.92;27.66
13661;BME280;6903;49.480;11.102;2023-04-27T11:36:33;98051.84;;;23.96;27.02
13661;BME280;6903;49.480;11.102;2023-04-27T11:38:58;98048.53;;;23.34;27.35
13661;BME280;6903;49.480;11.102;2023-04-27T11:41:34;98046.88;;;22.08;28.11
13661;BME280;6903;49.480;11.102;2023-04-27T11:44:09;98041.50;;;21.87;28.86
13661;BME280;6903;49.480;11.102;2023-04-27T11:46:35;98046.75;;;22.58;29.00
13661;BME280;6903;49.480;11.102;2023-04-27T11:49:05;98051.09;;;23.21;29.15
13661;BME280;6903;49.480;11.102;2023-04-27T11:51:31;98044.63;;;23.43;27.71
13661;BME280;6903;49.480;11.102;2023-04-27T11:54:03;98049.91;;;22.47;27.23
13661;BME280;6903;49.480;11.102;2023-04-27T11:56:36;98035.59;;;21.77;28.04
13661;BME280;6903;49.480;11.102;2023-04-27T11:59:03;98039.06;;;20.83;29.36
13661;BME280;6903;49.480;11.102;2023-04-27T12:01:30;98040.72;;;20.84;29.52
13661;BME280;6903;49.480;11.102;2023-04-27T12:03:55;98036.75;;;20.80;29.77
13661;BME280;6903;49.480;11.102;2023-04-27T12:06:27;98040.47;;;20.79;29.92
13661;BME280;6903;49.480;11.102;2023-04-27T12:08:56;98031.56;;;20.64;30.27
13661;BME280;6903;49.480;11.102;2023-04-27T12:11:25;98035.44;;;20.76;31.53
13661;BME280;6903;49.480;11.102;2023-04-27T12:13:52;98033.84;;;21.19;31.22
13661;BME280;6903;49.480;11.102;2023-04-27T12:16:17;98028.72;;;21.89;30.89
13661;BME280;6903;49.480;11.102;2023-04-27T12:18:43;98034.06;;;22.80;30.83
13661;BME280;6903;49.480;11.102;2023-04-27T12:21:08;98026.97;;;23.27;29.87
13661;BME280;6903;49.480;11.102;2023-04-27T12:23:34;98025.91;;;23.75;29.43
13661;BME280;6903;49.480;11.102;2023-04-27T12:26:00;98028.44;;;23.97;29.33
13661;BME280;6903;49.480;11.102;2023-04-27T12:28:25;98019.38;;;24.04;29.15
13661;BME280;6903;49.480;11.102;2023-04-27T12:30:51;98017.53;;;24.18;29.47
13661;BME280;6903;49.480;11.102;2023-04-27T12:33:16;98025.81;;;24.16;29.25
13661;BME280;6903;49.480;11.102;2023-04-27T12:35:41;98027.06;;;24.20;29.26
13661;BME280;6903;49.480;11.102;2023-04-27T12:38:07;98025.22;;;24.34;29.30
13661;BME280;6903;49.480;11.102;2023-04-27T12:40:32;98023.16;;;23.62;29.13
13661;BME280;6903;49.480;11.102;2023-04-27T12:42:58;98019.59;;;23.55;29.10
13661;BME280;6903;49.480;11.102;2023-04-27T12:45:23;98020.09;;;23.72;29.50
13661;BME280;6903;49.480;11.102;2023-04-27T12:47:48;98016.38;;;23.79;29.77
13661;BME280;6903;49.480;11.102;2023-04-27T12:50:15;98022.13;;;23.63;29.15
13661;BME280;6903;49.480;11.102;2023-04-27T12:52:41;98019.41;;;23.57;29.93
13661;BME280;6903;49.480;11.102;2023-04-27T12:55:06;98019.59;;;23.55;29.13
13661;BME280;6903;49.480;11.102;2023-04-27T12:57:33;98013.88;;;23.24;29.51
13661;BME280;6903;49.480;11.102;2023-04-27T12:59:58;98019.53;;;22.68;29.53